Time,TemperatureF,DewpointF,PressureIn,WindDirection,WindDirectionDegrees,WindSpeedMPH,WindSpeedGustMPH,Humidity,HourlyPrecipIn,Conditions,Clouds,dailyrainin,SoftwareType,DateUTC
2017-10-18 00:00:00,48.8,43.2,30.21,WSW,255,0.0,0.0,81,0.00,,,0.00,Wunderground v.1.15,2017-10-18 04:00:00,
2017-10-18 00:10:00,48.3,43.1,30.21,WSW,255,0.0,0.0,82,0.00,,,0.00,Wunderground v.1.15,2017-10-18 04:10:00,
2017-10-18 00:15:00,48.1,42.9,30.20,WSW,256,0.0,0.0,82,0.00,,,0.00,Wunderground v.1.15,2017-10-18 04:15:00,
2017-10-18 00:25:00,47.7,42.8,30.21,WSW,256,0.0,0.0,83,0.00,,,0.00,Wunderground v.1.15,2017-10-18 04:25:00,
2017-10-18 00:35:00,47.2,42.6,30.20,WSW,256,0.0,0.0,84,0.00,,,0.00,Wunderground v.1.15,2017-10-18 04:35:00,
2017-10-18 00:45:00,46.7,42.4,30.20,WSW,255,0.0,0.0,85,0.00,,,0.00,Wunderground v.1.15,2017-10-18 04:45:00,
2017-10-18 00:55:00,46.7,42.7,30.20,WSW,256,0.0,0.0,86,0.00,,,0.00,Wunderground v.1.15,2017-10-18 04:55:00,
2017-10-18 01:00:00,47.1,43.1,30.20,WSW,256,0.0,0.0,86,0.00,,,0.00,Wunderground v.1.15,2017-10-18 05:00:00,
2017-10-18 01:10:00,47.6,43.3,30.20,WSW,256,0.0,0.0,85,0.00,,,0.00,Wunderground v.1.15,2017-10-18 05:10:00,
2017-10-18 01:15:00,47.8,43.2,30.20,WSW,255,0.0,0.0,84,0.00,,,0.00,Wunderground v.1.15,2017-10-18 05:15:00,
2017-10-18 01:25:00,48.0,43.4,30.20,WSW,255,0.0,0.0,84,0.00,,,0.00,Wunderground v.1.15,2017-10-18 05:25:00,
2017-10-18 01:30:00,48.2,43.3,30.20,WSW,255,0.0,0.0,83,0.00,,,0.00,Wunderground v.1.15,2017-10-18 05:30:00,
2017-10-18 01:40:00,48.5,43.3,30.20,WSW,251,0.0,0.0,82,0.00,,,0.00,Wunderground v.1.15,2017-10-18 05:40:00,
2017-10-18 01:45:00,48.5,43.3,30.20,WSW,252,0.0,0.0,82,0.00,,,0.00,Wunderground v.1.15,2017-10-18 05:45:00,
2017-10-18 01:55:00,48.0,42.8,30.20,WSW,252,0.0,0.0,82,0.00,,,0.00,Wunderground v.1.15,2017-10-18 05:55:00,
2017-10-18 02:05:00,47.5,42.9,30.21,WSW,252,0.0,0.0,84,0.00,,,0.00,Wunderground v.1.15,2017-10-18 06:05:00,
2017-10-18 02:10:00,47.5,42.9,30.21,WSW,251,0.0,0.0,84,0.00,,,0.00,Wunderground v.1.15,2017-10-18 06:10:00,
2017-10-18 02:15:00,47.3,42.7,30.21,WSW,252,0.0,0.0,84,0.00,,,0.00,Wunderground v.1.15,2017-10-18 06:15:00,
2017-10-18 02:25:00,46.7,42.4,30.21,WSW,252,0.0,0.0,85,0.00,,,0.00,Wunderground v.1.15,2017-10-18 06:25:00,
2017-10-18 02:35:00,46.1,42.1,30.21,WSW,253,0.0,0.0,86,0.00,,,0.00,Wunderground v.1.15,2017-10-18 06:35:00,
2017-10-18 02:45:00,45.8,42.2,30.21,WSW,253,0.0,0.0,87,0.00,,,0.00,Wunderground v.1.15,2017-10-18 06:45:00,
2017-10-18 02:55:00,45.2,41.6,30.21,WSW,251,0.0,0.0,87,0.00,,,0.00,Wunderground v.1.15,2017-10-18 06:55:00,
2017-10-18 03:05:00,44.5,41.2,30.21,WSW,252,0.0,0.0,88,0.00,,,0.00,Wunderground v.1.15,2017-10-18 07:05:00,
2017-10-18 03:15:00,44.2,41.2,30.21,WSW,253,0.0,0.0,89,0.00,,,0.00,Wunderground v.1.15,2017-10-18 07:15:00,
2017-10-18 03:25:00,44.1,41.4,30.21,WSW,251,0.0,0.0,90,0.00,,,0.00,Wunderground v.1.15,2017-10-18 07:25:00,
2017-10-18 03:35:00,43.9,41.2,30.21,WSW,253,0.0,0.0,90,0.00,,,0.00,Wunderground v.1.15,2017-10-18 07:35:00,
2017-10-18 03:40:00,43.8,41.1,30.21,WSW,253,0.0,0.0,90,0.00,,,0.00,Wunderground v.1.15,2017-10-18 07:40:00,
2017-10-18 03:50:00,42.6,39.9,30.21,WSW,252,0.0,0.0,90,0.00,,,0.00,Wunderground v.1.15,2017-10-18 07:50:00,
2017-10-18 03:55:00,42.6,39.9,30.21,WSW,252,0.0,0.0,90,0.00,,,0.00,Wunderground v.1.15,2017-10-18 07:55:00,
2017-10-18 04:05:00,-999.9,-99.9,30.22,North,32767,-999.9,0.0,255,-99.99,,,0.00,Wunderground v.1.15,2017-10-18 08:05:00,
2017-10-18 04:15:00,-999.9,-99.9,30.22,North,32767,-999.9,0.0,255,-99.99,,,0.00,Wunderground v.1.15,2017-10-18 08:15:00,
2017-10-18 04:25:00,-999.9,-99.9,30.21,North,32767,-999.9,0.0,255,-99.99,,,0.00,Wunderground v.1.15,2017-10-18 08:25:00,
2017-10-18 04:35:00,-999.9,-99.9,30.22,North,32767,-999.9,0.0,255,-99.99,,,0.00,Wunderground v.1.15,2017-10-18 08:35:00,
2017-10-18 04:40:00,-999.9,-99.9,30.21,North,32767,-999.9,0.0,255,-99.99,,,0.00,Wunderground v.1.15,2017-10-18 08:40:00,
2017-10-18 04:45:00,-999.9,-99.9,30.22,North,32767,-999.9,0.0,255,-99.99,,,0.00,Wunderground v.1.15,2017-10-18 08:45:00,
2017-10-18 04:55:00,-999.9,-99.9,30.22,North,32767,-999.9,0.0,255,-99.99,,,0.00,Wunderground v.1.15,2017-10-18 08:55:00,
2017-10-18 05:00:00,-999.9,-99.9,30.22,North,32767,-999.9,0.0,255,-99.99,,,0.00,Wunderground v.1.15,2017-10-18 09:00:00,
2017-10-18 05:10:00,-999.9,-99.9,30.22,North,32767,-999.9,0.0,255,-99.99,,,0.00,Wunderground v.1.15,2017-10-18 09:10:00,
2017-10-18 05:15:00,-999.9,-99.9,30.22,North,32767,-999.9,0.0,255,-99.99,,,0.00,Wunderground v.1.15,2017-10-18 09:15:00,
2017-10-18 05:25:00,-999.9,-99.9,30.22,North,32767,-999.9,0.0,255,-99.99,,,0.00,Wunderground v.1.15,2017-10-18 09:25:00,
2017-10-18 05:35:00,-999.9,-99.9,30.23,North,32767,-999.9,0.0,255,-99.99,,,0.00,Wunderground v.1.15,2017-10-18 09:35:00,
2017-10-18 05:45:00,-999.9,-99.9,30.23,North,32767,-999.9,0.0,255,-99.99,,,0.00,Wunderground v.1.15,2017-10-18 09:45:00,
2017-10-18 05:50:00,-999.9,-99.9,30.23,North,32767,-999.9,0.0,255,-99.99,,,0.00,Wunderground v.1.15,2017-10-18 09:50:00,
2017-10-18 06:00:00,-999.9,-99.9,30.23,North,32767,-999.9,0.0,255,-99.99,,,0.00,Wunderground v.1.15,2017-10-18 10:00:00,
2017-10-18 06:10:00,-999.9,-99.9,30.24,North,32767,-999.9,0.0,255,-99.99,,,0.00,Wunderground v.1.15,2017-10-18 10:10:00,
2017-10-18 06:15:00,-999.9,-99.9,30.24,North,32767,-999.9,0.0,255,-99.99,,,0.00,Wunderground v.1.15,2017-10-18 10:15:00,
2017-10-18 06:25:00,-999.9,-99.9,30.24,North,32767,-999.9,0.0,255,-99.99,,,0.00,Wunderground v.1.15,2017-10-18 10:25:00,
2017-10-18 06:35:00,-999.9,-99.9,30.24,North,32767,-999.9,0.0,255,-99.99,,,0.00,Wunderground v.1.15,2017-10-18 10:35:00,
2017-10-18 06:40:00,-999.9,-99.9,30.24,North,32767,-999.9,0.0,255,-99.99,,,0.00,Wunderground v.1.15,2017-10-18 10:40:00,
2017-10-18 06:50:00,-999.9,-99.9,30.24,North,32767,-999.9,0.0,255,-99.99,,,0.00,Wunderground v.1.15,2017-10-18 10:50:00,
2017-10-18 06:55:00,-999.9,-99.9,30.24,North,32767,-999.9,0.0,255,-99.99,,,0.00,Wunderground v.1.15,2017-10-18 10:55:00,
2017-10-18 07:05:00,-999.9,-99.9,30.24,North,32767,-999.9,0.0,255,-99.99,,,0.00,Wunderground v.1.15,2017-10-18 11:05:00,
2017-10-18 07:15:00,-999.9,-99.9,30.24,North,32767,-999.9,0.0,255,-99.99,,,0.00,Wunderground v.1.15,2017-10-18 11:15:00,
2017-10-18 07:25:00,-999.9,-99.9,30.25,North,32767,-999.9,0.0,255,-99.99,,,0.00,Wunderground v.1.15,2017-10-18 11:25:00,
2017-10-18 07:35:00,-999.9,-99.9,30.25,North,32767,-999.9,0.0,255,-99.99,,,0.00,Wunderground v.1.15,2017-10-18 11:35:00,
2017-10-18 07:40:00,-999.9,-99.9,30.25,North,32767,-999.9,0.0,255,-99.99,,,0.00,Wunderground v.1.15,2017-10-18 11:40:00,
2017-10-18 07:50:00,-999.9,-99.9,30.25,North,32767,-999.9,0.0,255,-99.99,,,0.00,Wunderground v.1.15,2017-10-18 11:50:00,
2017-10-18 08:00:00,-999.9,-99.9,30.24,North,32767,-999.9,0.0,255,-99.99,,,0.00,Wunderground v.1.15,2017-10-18 12:00:00,
2017-10-18 08:05:00,-999.9,-99.9,30.24,North,32767,-999.9,0.0,255,-99.99,,,0.00,Wunderground v.1.15,2017-10-18 12:05:00,
2017-10-18 08:15:00,-999.9,-99.9,30.25,North,32767,-999.9,0.0,255,-99.99,,,0.00,Wunderground v.1.15,2017-10-18 12:15:00,
2017-10-18 08:20:00,-999.9,-99.9,30.25,North,32767,-999.9,0.0,255,-99.99,,,0.00,Wunderground v.1.15,2017-10-18 12:20:00,
2017-10-18 08:30:00,42.7,40.8,30.25,WSW,248,0.0,0.0,93,0.00,,,0.00,Wunderground v.1.15,2017-10-18 12:30:00,
2017-10-18 08:35:00,43.1,41.2,30.25,SW,233,0.0,0.0,93,0.00,,,0.00,Wunderground v.1.15,2017-10-18 12:35:00,
2017-10-18 08:45:00,43.7,41.5,30.25,SW,233,0.0,0.0,92,0.00,,,0.00,Wunderground v.1.15,2017-10-18 12:45:00,
2017-10-18 08:55:00,44.2,42.0,30.25,SW,231,0.0,0.0,92,0.00,,,0.00,Wunderground v.1.15,2017-10-18 12:55:00,
2017-10-18 09:00:00,44.7,42.5,30.25,SW,235,0.0,0.0,92,0.00,,,0.00,Wunderground v.1.15,2017-10-18 13:00:00,
2017-10-18 09:10:00,45.5,43.0,30.25,SSW,212,0.0,0.0,91,0.00,,,0.00,Wunderground v.1.15,2017-10-18 13:10:00,
2017-10-18 09:20:00,46.4,43.3,30.25,WSW,249,0.0,0.0,89,0.00,,,0.00,Wunderground v.1.15,2017-10-18 13:20:00,
2017-10-18 09:30:00,47.3,43.9,30.25,SW,231,0.0,0.0,88,0.00,,,0.00,Wunderground v.1.15,2017-10-18 13:30:00,
2017-10-18 09:35:00,47.8,44.1,30.26,SW,226,0.0,0.0,87,0.00,,,0.00,Wunderground v.1.15,2017-10-18 13:35:00,
2017-10-18 09:45:00,48.8,44.2,30.25,SW,222,0.0,0.0,84,0.00,,,0.00,Wunderground v.1.15,2017-10-18 13:45:00,
2017-10-18 09:55:00,49.9,45.3,30.25,WSW,252,0.0,0.0,84,0.00,,,0.00,Wunderground v.1.15,2017-10-18 13:55:00,
2017-10-18 10:00:00,50.6,45.6,30.25,SW,236,0.0,0.0,83,0.00,,,0.00,Wunderground v.1.15,2017-10-18 14:00:00,
2017-10-18 10:10:00,51.7,45.4,30.25,SW,224,0.0,0.0,79,0.00,,,0.00,Wunderground v.1.15,2017-10-18 14:10:00,
2017-10-18 10:15:00,52.1,45.8,30.26,West,278,0.0,1.0,79,0.00,,,0.00,Wunderground v.1.15,2017-10-18 14:15:00,
2017-10-18 10:25:00,53.3,45.6,30.26,WSW,243,0.0,2.0,75,0.00,,,0.00,Wunderground v.1.15,2017-10-18 14:25:00,
2017-10-18 10:30:00,53.8,46.4,30.26,WSW,238,0.0,0.0,76,0.00,,,0.00,Wunderground v.1.15,2017-10-18 14:30:00,
2017-10-18 10:40:00,54.5,46.0,30.26,ESE,102,0.0,2.0,73,0.00,,,0.00,Wunderground v.1.15,2017-10-18 14:40:00,
2017-10-18 10:45:00,54.8,46.3,30.26,SSW,207,0.0,2.0,73,0.00,,,0.00,Wunderground v.1.15,2017-10-18 14:45:00,
2017-10-18 10:55:00,55.7,47.2,30.26,WSW,246,0.0,0.0,73,0.00,,,0.00,Wunderground v.1.15,2017-10-18 14:55:00,
2017-10-18 11:05:00,56.3,47.0,30.26,WSW,237,0.0,0.0,71,0.00,,,0.00,Wunderground v.1.15,2017-10-18 15:05:00,
2017-10-18 11:15:00,57.3,47.2,30.25,SW,235,0.0,0.0,69,0.00,,,0.00,Wunderground v.1.15,2017-10-18 15:15:00,
2017-10-18 11:25:00,58.0,46.7,30.26,North,6,1.0,4.0,66,0.00,,,0.00,Wunderground v.1.15,2017-10-18 15:25:00,
2017-10-18 11:30:00,58.5,47.2,30.25,WSW,256,1.0,1.0,66,0.00,,,0.00,Wunderground v.1.15,2017-10-18 15:30:00,
2017-10-18 11:40:00,59.0,46.0,30.25,SSW,201,1.0,1.0,62,0.00,,,0.00,Wunderground v.1.15,2017-10-18 15:40:00,
2017-10-18 11:45:00,59.3,47.1,30.25,ENE,65,1.0,1.0,64,0.00,,,0.00,Wunderground v.1.15,2017-10-18 15:45:00,
2017-10-18 11:55:00,60.2,46.7,30.25,WNW,287,1.0,5.0,61,0.00,,,0.00,Wunderground v.1.15,2017-10-18 15:55:00,
2017-10-18 12:05:00,60.7,45.8,30.25,WSW,246,2.0,2.0,58,0.00,,,0.00,Wunderground v.1.15,2017-10-18 16:05:00,
2017-10-18 12:15:00,61.2,46.8,30.25,West,281,1.0,2.0,59,0.00,,,0.00,Wunderground v.1.15,2017-10-18 16:15:00,
2017-10-18 12:25:00,62.0,47.0,30.24,WSW,253,1.0,2.0,58,0.00,,,0.00,Wunderground v.1.15,2017-10-18 16:25:00,
2017-10-18 12:35:00,62.5,47.5,30.24,SW,217,1.0,1.0,58,0.00,,,0.00,Wunderground v.1.15,2017-10-18 16:35:00,
2017-10-18 12:40:00,62.8,46.9,30.23,SSW,209,1.0,1.0,56,0.00,,,0.00,Wunderground v.1.15,2017-10-18 16:40:00,
2017-10-18 12:50:00,62.9,47.4,30.23,SW,226,2.0,2.0,57,0.00,,,0.00,Wunderground v.1.15,2017-10-18 16:50:00,
2017-10-18 12:55:00,62.8,46.9,30.22,SSW,193,2.0,2.0,56,0.00,,,0.00,Wunderground v.1.15,2017-10-18 16:55:00,
2017-10-18 13:05:00,63.2,46.8,30.22,WSW,240,2.0,3.0,55,0.00,,,0.00,Wunderground v.1.15,2017-10-18 17:05:00,
2017-10-18 13:15:00,63.2,45.8,30.21,West,263,2.0,4.0,53,0.00,,,0.00,Wunderground v.1.15,2017-10-18 17:15:00,
2017-10-18 13:25:00,63.6,46.1,30.21,SW,232,2.0,2.0,53,0.00,,,0.00,Wunderground v.1.15,2017-10-18 17:25:00,
2017-10-18 13:35:00,64.4,46.4,30.20,SE,133,1.0,3.0,52,0.00,,,0.00,Wunderground v.1.15,2017-10-18 17:35:00,
2017-10-18 13:45:00,64.5,46.0,30.19,West,280,2.0,3.0,51,0.00,,,0.00,Wunderground v.1.15,2017-10-18 17:45:00,
2017-10-18 13:55:00,64.5,46.5,30.19,WSW,250,2.0,2.0,52,0.00,,,0.00,Wunderground v.1.15,2017-10-18 17:55:00,
2017-10-18 14:05:00,64.9,47.4,30.18,WSW,242,2.0,4.0,53,0.00,,,0.00,Wunderground v.1.15,2017-10-18 18:05:00,
2017-10-18 14:15:00,65.3,46.2,30.18,SW,236,2.0,2.0,50,0.00,,,0.00,Wunderground v.1.15,2017-10-18 18:15:00,
2017-10-18 14:25:00,65.6,45.9,30.17,West,264,2.0,2.0,49,0.00,,,0.00,Wunderground v.1.15,2017-10-18 18:25:00,
2017-10-18 14:35:00,65.9,46.2,30.17,SSW,196,2.0,3.0,49,0.00,,,0.00,Wunderground v.1.15,2017-10-18 18:35:00,
2017-10-18 14:40:00,66.1,45.3,30.17,SSW,205,2.0,3.0,47,0.00,,,0.00,Wunderground v.1.15,2017-10-18 18:40:00,
2017-10-18 14:50:00,66.4,45.0,30.16,SW,219,2.0,2.0,46,0.00,,,0.00,Wunderground v.1.15,2017-10-18 18:50:00,
2017-10-18 14:55:00,66.4,43.8,30.16,WSW,238,2.0,2.0,44,0.00,,,0.00,Wunderground v.1.15,2017-10-18 18:55:00,
2017-10-18 15:05:00,66.9,46.0,30.16,SW,226,2.0,2.0,47,0.00,,,0.00,Wunderground v.1.15,2017-10-18 19:05:00,
2017-10-18 15:15:00,67.0,45.5,30.15,WSW,258,2.0,2.0,46,0.00,,,0.00,Wunderground v.1.15,2017-10-18 19:15:00,
2017-10-18 15:25:00,67.3,45.8,30.15,SW,214,2.0,2.0,46,0.00,,,0.00,Wunderground v.1.15,2017-10-18 19:25:00,
2017-10-18 15:35:00,67.5,46.6,30.15,SW,235,2.0,2.0,47,0.00,,,0.00,Wunderground v.1.15,2017-10-18 19:35:00,